首页
METAR-TAF:

METAR-TAF

机场 :

Newquay Cornwall, 英格兰

纬度: 50-26N, 经度: 005-00W, 海拔: 119米

当前天气观测

该预报发布于43分钟前的07:20 UTC
风速4节,风向北转东北
温度 7°C
湿度 93%
气压 1010 hPa
能见度10公里或以上
多云层高于4900英尺

METAR: EGHQ 170720Z 02004KT 9999 BKN049 07/06 Q1010

时间: 08:03 (08:03 UTC)

预报

该预报发布于15小时和4分钟前的16:59 UTC
预报有效从16日的 18点(UTC)到 16日的 22点(UTC)
风速4节,风向
能见度10公里或以上
少量云层高于2000英尺
几率 40% :
短暂存在
从 16日的 18点(UTC)到 16日的 22点(UTC)
能見度: 6000
多云层高于1400英尺
阵雨

TAF: EGHQ 161659Z 1618/1622 35004KT 9999 FEW020 PROB40 TEMPO 1618/1622 6000 SHRA BKN014

超过4000个机场的气象观测和天气预报(METAR&TAF报告)。

可查询的气象台以黄色和红色小点在地图上表示。

将鼠标移到小点上方,可查看气象台名称。

然后点击查看天气观测和预报。

如需切换地图:点击带黑十字的绿色按钮放大地图;点击带横线的绿色按钮缩小地图;或者点击绿色箭头查看邻近地区的地图。


METAR-TAF: